createdAt,value
2022-10-16T00:01:17.136Z,100956.56
2022-10-16T00:04:19.747Z,100947.91
2022-10-16T00:07:21.952Z,100949.56
2022-10-16T00:10:24.679Z,100947.25
2022-10-16T00:13:26.860Z,100949.09
2022-10-16T00:16:29.747Z,100946.53
2022-10-16T00:19:32.753Z,100947.38
2022-10-16T00:22:35.325Z,100939.66
2022-10-16T00:25:37.539Z,100956.28
2022-10-16T00:28:40.129Z,100957.19
2022-10-16T00:31:42.454Z,100961.59
2022-10-16T00:34:45.136Z,100971.28
2022-10-16T00:37:47.413Z,100974.88
2022-10-16T00:40:49.924Z,100974.59
2022-10-16T00:43:57.165Z,100975.47
2022-10-16T00:46:59.733Z,100969.63
2022-10-16T00:50:14.643Z,100978.50
2022-10-16T00:53:18.291Z,100972.56
2022-10-16T00:56:20.552Z,100971.09
2022-10-16T00:59:25.671Z,100972.09
2022-10-16T01:02:28.404Z,100980.09
2022-10-16T01:05:42.796Z,100987.41
2022-10-16T01:08:55.273Z,100991.06
2022-10-16T01:12:05.251Z,100999.94
2022-10-16T01:15:27.527Z,100990.44
2022-10-16T01:18:35.668Z,100987.25
2022-10-16T01:21:41.333Z,100987.38
2022-10-16T01:24:49.402Z,100992.13
2022-10-16T01:27:52.581Z,100991.41
2022-10-16T01:30:58.129Z,100996.34
2022-10-16T01:34:03.668Z,101005.59
2022-10-16T01:37:12.889Z,101002.41
2022-10-16T01:40:18.072Z,100998.38
2022-10-16T01:43:23.629Z,101003.19
2022-10-16T01:46:27.363Z,101009.44
2022-10-16T01:49:32.198Z,101021.03
2022-10-16T01:52:36.755Z,101016.34
2022-10-16T01:55:46.027Z,101019.31
2022-10-16T01:58:50.642Z,101025.78
2022-10-16T02:01:55.591Z,101033.16
2022-10-16T02:05:02.679Z,101023.97
2022-10-16T02:08:05.826Z,101029.59
2022-10-16T02:11:08.467Z,101037.84
2022-10-16T02:14:10.695Z,101033.84
2022-10-16T02:17:15.159Z,101040.94
2022-10-16T02:20:17.827Z,101037.75
2022-10-16T02:23:43.672Z,101027.03
2022-10-16T02:26:45.901Z,101027.41
2022-10-16T02:29:53.591Z,101026.91
2022-10-16T02:32:57.558Z,101028.03
2022-10-16T02:36:00.291Z,101031.75
2022-10-16T02:39:05.303Z,101026.72
2022-10-16T02:42:12.372Z,101039.84
2022-10-16T02:45:14.578Z,101041.81
2022-10-16T02:48:17.036Z,101046.31
2022-10-16T02:51:19.237Z,101042.03
2022-10-16T02:54:21.673Z,101039.53
2022-10-16T02:57:24.197Z,101044.16
2022-10-16T03:00:27.053Z,101049.56
2022-10-16T03:03:29.414Z,101039.28
2022-10-16T03:06:31.878Z,101052.41
2022-10-16T03:09:34.492Z,101054.25
2022-10-16T03:12:37.055Z,101054.44
2022-10-16T03:15:39.247Z,101058.06
2022-10-16T03:18:41.808Z,101059.94
2022-10-16T03:21:44.152Z,101063.47
2022-10-16T03:24:46.721Z,101064.41
2022-10-16T03:27:48.907Z,101068.91
2022-10-16T03:30:51.775Z,101074.25
2022-10-16T03:33:54.034Z,101072.72
2022-10-16T03:36:56.602Z,101075.44
2022-10-16T03:39:58.833Z,101081.69
2022-10-16T03:43:01.563Z,101085.31
2022-10-16T03:46:03.869Z,101088.06
2022-10-16T03:49:08.931Z,101083.88
2022-10-16T03:52:12.131Z,101088.22
2022-10-16T03:55:14.607Z,101090.94
2022-10-16T03:58:16.990Z,101090.16
2022-10-16T04:01:19.530Z,101093.72
2022-10-16T04:04:22.120Z,101099.06
2022-10-16T04:07:24.550Z,101097.41
2022-10-16T04:10:33.065Z,101102.72
2022-10-16T04:13:35.970Z,101100.97
2022-10-16T04:16:38.435Z,101105.38
2022-10-16T04:19:40.583Z,101100.16
2022-10-16T04:22:43.170Z,101107.19
2022-10-16T04:25:45.400Z,101108.09
2022-10-16T04:28:48.224Z,101104.66
2022-10-16T04:31:50.456Z,101102.91
2022-10-16T04:34:53.064Z,101100.41
2022-10-16T04:37:55.238Z,101112.53
2022-10-16T04:40:57.737Z,101116.06
2022-10-16T04:43:59.993Z,101118.75
2022-10-16T04:47:02.508Z,101129.22
2022-10-16T04:50:05.020Z,101127.44
2022-10-16T04:53:08.166Z,101123.19
2022-10-16T04:56:10.421Z,101124.09
2022-10-16T04:59:13.609Z,101133.72
2022-10-16T05:02:15.787Z,101130.34
2022-10-16T05:05:20.453Z,101137.28
2022-10-16T05:08:22.728Z,101138.19
2022-10-16T05:11:25.445Z,101139.00
2022-10-16T05:14:27.589Z,101134.72
2022-10-16T05:17:30.063Z,101144.28
2022-10-16T05:20:32.422Z,101142.56
2022-10-16T05:23:34.949Z,101134.69
2022-10-16T05:26:37.164Z,101145.94
2022-10-16T05:29:39.712Z,101146.81
2022-10-16T05:32:42.029Z,101156.31
2022-10-16T05:35:44.928Z,101164.91
2022-10-16T05:38:47.096Z,101165.72
2022-10-16T05:41:50.594Z,101165.72
2022-10-16T05:44:52.754Z,101169.16
2022-10-16T05:47:55.310Z,101166.44
2022-10-16T05:51:02.151Z,101174.19
2022-10-16T05:54:04.693Z,101166.19
2022-10-16T05:57:07.031Z,101169.53
2022-10-16T06:00:09.937Z,101164.00
2022-10-16T06:03:14.773Z,101171.59
2022-10-16T06:06:18.536Z,101180.06
2022-10-16T06:09:20.794Z,101191.09
2022-10-16T06:12:23.401Z,101198.75
2022-10-16T06:15:25.600Z,101195.91
2022-10-16T06:18:30.979Z,101192.06
2022-10-16T06:21:33.397Z,101196.78
2022-10-16T06:24:36.131Z,101198.06
2022-10-16T06:27:40.381Z,101197.50
2022-10-16T06:30:46.732Z,101194.66
2022-10-16T06:33:52.123Z,101205.66
2022-10-16T06:36:54.621Z,101214.03
2022-10-16T06:39:56.854Z,101231.00
2022-10-16T06:42:59.462Z,101223.63
2022-10-16T06:46:02.934Z,101230.84
2022-10-16T06:49:05.501Z,101241.72
2022-10-16T06:52:07.763Z,101242.16
2022-10-16T06:55:10.290Z,101242.63
2022-10-16T06:58:12.604Z,101235.94
2022-10-16T07:01:16.163Z,101244.19
2022-10-16T07:04:18.489Z,101242.12
2022-10-16T07:07:21.055Z,101254.78
2022-10-16T07:10:25.277Z,101259.69
2022-10-16T07:13:27.951Z,101262.16
2022-10-16T07:16:31.560Z,101264.16
2022-10-16T07:19:34.614Z,101272.78
2022-10-16T07:22:36.848Z,101279.78
2022-10-16T07:25:39.861Z,101275.62
2022-10-16T07:28:43.485Z,101279.03
2022-10-16T07:31:46.097Z,101281.91
2022-10-16T07:34:48.390Z,101294.87
2022-10-16T07:37:50.923Z,101307.25
2022-10-16T07:41:20.070Z,101294.37
2022-10-16T07:44:22.698Z,101300.03
2022-10-16T07:47:25.269Z,101305.19
2022-10-16T07:50:28.288Z,101311.03
2022-10-16T07:53:30.732Z,101317.63
2022-10-16T07:56:33.823Z,101304.37
2022-10-16T07:59:36.167Z,101312.13
2022-10-16T08:02:38.755Z,101304.25
2022-10-16T08:05:41.242Z,101304.78
2022-10-16T08:08:43.589Z,101312.88
2022-10-16T08:11:46.131Z,101311.47
2022-10-16T08:14:48.458Z,101312.00
2022-10-16T08:18:01.123Z,101317.00
2022-10-16T08:21:04.397Z,101328.75
2022-10-16T08:24:07.025Z,101338.44
2022-10-16T08:27:10.048Z,101334.06
2022-10-16T08:30:12.609Z,101339.81
2022-10-16T08:33:15.205Z,101334.59
2022-10-16T08:36:17.992Z,101333.78
2022-10-16T08:39:20.255Z,101347.47
2022-10-16T08:42:30.638Z,101352.16
2022-10-16T08:45:36.106Z,101350.38
2022-10-16T08:48:59.035Z,101343.50
2022-10-16T08:52:01.407Z,101343.00
2022-10-16T08:55:04.865Z,101339.44
2022-10-16T08:58:12.935Z,101345.34
2022-10-16T09:01:17.369Z,101344.69
2022-10-16T09:04:28.735Z,101352.03
2022-10-16T09:07:36.838Z,101352.84
2022-10-16T09:10:45.074Z,101352.81
2022-10-16T09:13:53.378Z,101352.09
2022-10-16T09:17:01.787Z,101365.50
2022-10-16T09:20:14.506Z,101361.69
2022-10-16T09:23:35.412Z,101350.53
2022-10-16T09:26:37.973Z,101353.53
2022-10-16T09:29:41.676Z,101349.00
2022-10-16T09:32:45.489Z,101343.88
2022-10-16T09:35:52.188Z,101348.75
2022-10-16T09:39:05.683Z,101353.72
2022-10-16T09:42:07.980Z,101348.63
2022-10-16T09:45:21.579Z,101347.56
2022-10-16T09:48:25.839Z,101354.03
2022-10-16T09:51:28.391Z,101359.00
2022-10-16T09:54:30.633Z,101355.25
2022-10-16T09:57:33.221Z,101356.16
2022-10-16T10:00:35.943Z,101364.12
2022-10-16T10:03:40.339Z,101366.69
2022-10-16T10:06:45.405Z,101363.78
2022-10-16T10:09:48.279Z,101365.47
2022-10-16T10:12:50.758Z,101363.41
2022-10-16T10:15:53.708Z,101358.97
2022-10-16T10:18:59.381Z,101347.56
2022-10-16T10:22:01.962Z,101341.13
2022-10-16T10:25:04.171Z,101342.44
2022-10-16T10:28:16.766Z,101340.19
2022-10-16T10:31:33.635Z,101332.69
2022-10-16T10:34:36.115Z,101340.84
2022-10-16T10:37:47.529Z,101347.56
2022-10-16T10:41:11.434Z,101345.25
2022-10-16T10:44:42.994Z,101334.25
2022-10-16T10:48:07.344Z,101333.94
2022-10-16T10:51:15.614Z,101337.56
2022-10-16T10:54:18.109Z,101336.19
2022-10-16T10:57:20.741Z,101338.78
2022-10-16T11:00:57.001Z,101341.94
2022-10-16T11:04:17.832Z,101336.41
2022-10-16T11:07:35.907Z,101345.72
2022-10-16T11:10:50.938Z,101339.56
2022-10-16T11:13:59.286Z,101333.25
2022-10-16T11:17:01.594Z,101330.22
2022-10-16T11:20:04.037Z,101323.31
2022-10-16T11:23:11.745Z,101324.00
2022-10-16T11:26:16.278Z,101318.75
2022-10-16T11:29:23.872Z,101317.72
2022-10-16T11:32:30.290Z,101304.19
2022-10-16T11:35:44.159Z,101304.44
2022-10-16T11:39:05.552Z,101307.50
2022-10-16T11:42:22.498Z,101302.19
2022-10-16T11:45:29.516Z,101298.66
2022-10-16T11:48:36.892Z,101299.91
2022-10-16T11:51:41.898Z,101305.88
2022-10-16T11:54:57.290Z,101303.81
2022-10-16T11:58:05.052Z,101304.13
2022-10-16T12:01:10.352Z,101309.09
2022-10-16T12:04:19.406Z,101301.00
2022-10-16T12:07:28.768Z,101296.19
2022-10-16T12:13:45.119Z,101292.81
2022-10-16T12:16:56.570Z,101288.38
2022-10-16T12:20:20.725Z,101287.41
2022-10-16T12:23:23.838Z,101297.03
2022-10-16T12:26:30.884Z,101284.75
2022-10-16T12:29:33.364Z,101284.19
2022-10-16T12:32:52.832Z,101290.63
2022-10-16T12:35:55.977Z,101279.19
2022-10-16T12:38:58.483Z,101281.75
2022-10-16T12:42:02.316Z,101276.06
2022-10-16T12:45:24.154Z,101276.34
2022-10-16T12:48:36.797Z,101274.94
2022-10-16T12:51:49.610Z,101283.91
2022-10-16T12:54:52.184Z,101280.22
2022-10-16T12:58:06.604Z,101286.94
2022-10-16T13:01:30.692Z,101282.13
2022-10-16T13:04:51.340Z,101285.22
2022-10-16T13:07:53.876Z,101287.94
2022-10-16T13:11:04.367Z,101299.50
2022-10-16T13:14:12.878Z,101288.53
2022-10-16T13:17:21.238Z,101290.44
2022-10-16T13:20:46.808Z,101290.44
2022-10-16T13:24:03.235Z,101288.53
2022-10-16T13:27:14.821Z,101294.69
2022-10-16T13:30:28.197Z,101296.94
2022-10-16T13:33:34.673Z,101296.88
2022-10-16T13:36:44.127Z,101305.53
2022-10-16T13:39:47.679Z,101296.44
2022-10-16T13:42:50.812Z,101291.06
2022-10-16T13:45:54.365Z,101292.88
2022-10-16T13:48:57.619Z,101302.88
2022-10-16T13:52:00.988Z,101291.72
2022-10-16T13:55:03.335Z,101300.53
2022-10-16T13:58:09.713Z,101296.59
2022-10-16T14:01:26.229Z,101302.66
2022-10-16T14:04:33.154Z,101302.91
2022-10-16T14:07:35.738Z,101308.41
2022-10-16T14:10:38.951Z,101299.22
2022-10-16T14:13:45.430Z,101299.41
2022-10-16T14:16:48.256Z,101294.94
2022-10-16T14:19:55.430Z,101300.69
2022-10-16T14:23:03.737Z,101299.62
2022-10-16T14:26:06.725Z,101298.81
2022-10-16T14:29:16.564Z,101296.50
2022-10-16T14:32:24.149Z,101295.41
2022-10-16T14:35:28.380Z,101294.59
2022-10-16T14:38:31.232Z,101306.19
2022-10-16T14:41:36.529Z,101304.56
2022-10-16T14:44:40.765Z,101306.56
2022-10-16T14:47:49.226Z,101310.84
2022-10-16T14:50:51.652Z,101315.94
2022-10-16T14:53:57.779Z,101313.34
2022-10-16T14:57:02.376Z,101311.22
2022-10-16T15:00:13.839Z,101308.34
2022-10-16T15:03:16.705Z,101304.03
2022-10-16T15:06:19.315Z,101307.00
2022-10-16T15:09:21.588Z,101305.16
2022-10-16T15:12:24.091Z,101311.37
2022-10-16T15:15:26.293Z,101312.53
2022-10-16T15:18:29.480Z,101316.50
2022-10-16T15:21:32.654Z,101321.28
2022-10-16T15:24:35.243Z,101334.16
2022-10-16T15:27:41.296Z,101325.88
2022-10-16T15:30:45.994Z,101328.00
2022-10-16T15:33:54.439Z,101330.44
2022-10-16T15:36:58.864Z,101328.41
2022-10-16T15:40:01.280Z,101329.38
2022-10-16T15:43:04.018Z,101329.31
2022-10-16T15:46:09.481Z,101332.78
2022-10-16T15:49:12.618Z,101335.94
2022-10-16T15:52:14.940Z,101337.25
2022-10-16T15:55:18.465Z,101339.56
2022-10-16T15:58:20.840Z,101341.78
2022-10-16T16:01:23.768Z,101344.88
2022-10-16T16:04:42.788Z,101350.69
2022-10-16T16:07:45.670Z,101360.91
2022-10-16T16:11:01.502Z,101363.06
2022-10-16T16:14:03.725Z,101366.06
2022-10-16T16:17:06.300Z,101377.72
2022-10-16T16:20:08.835Z,101387.78
2022-10-16T16:23:11.621Z,101383.78
2022-10-16T16:26:26.923Z,101382.41
2022-10-16T16:29:29.529Z,101395.09
2022-10-16T16:32:31.922Z,101399.72
2022-10-16T16:35:34.409Z,101391.06
2022-10-16T16:38:39.686Z,101409.00
2022-10-16T16:41:42.543Z,101413.00
2022-10-16T16:44:44.756Z,101416.75
2022-10-16T16:47:47.311Z,101419.63
2022-10-16T16:50:49.784Z,101422.50
2022-10-16T16:53:53.330Z,101421.94
2022-10-16T16:56:55.573Z,101419.63
2022-10-16T16:59:58.341Z,101415.50
2022-10-16T17:03:00.699Z,101423.56
2022-10-16T17:06:05.534Z,101427.16
2022-10-16T17:09:07.961Z,101441.34
2022-10-16T17:12:10.836Z,101445.12
2022-10-16T17:15:13.285Z,101447.16
2022-10-16T17:18:16.314Z,101457.88
2022-10-16T17:21:18.619Z,101460.69
2022-10-16T17:24:21.475Z,101460.84
2022-10-16T17:27:24.121Z,101461.81
2022-10-16T17:30:26.812Z,101462.69
2022-10-16T17:33:29.083Z,101466.09
2022-10-16T17:36:33.961Z,101469.91
2022-10-16T17:39:36.225Z,101478.75
2022-10-16T17:42:38.729Z,101484.94
2022-10-16T17:45:41.108Z,101496.56
2022-10-16T17:48:45.548Z,101496.00
2022-10-16T17:51:52.061Z,101499.72
2022-10-16T17:54:55.736Z,101503.44
2022-10-16T17:57:58.394Z,101501.66
2022-10-16T18:01:01.385Z,101508.97
2022-10-16T18:04:07.216Z,101510.94
2022-10-16T18:07:09.543Z,101510.19
2022-10-16T18:10:12.485Z,101510.38
2022-10-16T18:13:15.199Z,101514.84
2022-10-16T18:16:17.745Z,101515.84
2022-10-16T18:19:20.493Z,101519.50
2022-10-16T18:22:23.738Z,101517.00
2022-10-16T18:25:26.176Z,101517.12
2022-10-16T18:28:28.824Z,101516.38
2022-10-16T18:31:33.310Z,101518.25
2022-10-16T18:34:37.536Z,101527.12
2022-10-16T18:37:39.872Z,101530.69
2022-10-16T18:40:42.505Z,101530.69
2022-10-16T18:43:44.766Z,101531.69
2022-10-16T18:46:48.338Z,101537.00
2022-10-16T18:49:50.675Z,101540.56
2022-10-16T18:52:53.177Z,101543.38
2022-10-16T18:55:55.461Z,101541.75
2022-10-16T18:59:03.199Z,101543.66
2022-10-16T19:02:05.606Z,101550.62
2022-10-16T19:05:13.283Z,101550.84
2022-10-16T19:08:17.994Z,101553.56
2022-10-16T19:11:21.846Z,101548.34
2022-10-16T19:14:25.186Z,101548.50
2022-10-16T19:17:27.769Z,101548.63
2022-10-16T19:20:30.087Z,101546.16
2022-10-16T19:23:33.124Z,101552.31
2022-10-16T19:26:38.101Z,101555.69
2022-10-16T19:29:43.656Z,101559.25
2022-10-16T19:32:46.409Z,101554.03
2022-10-16T19:35:48.995Z,101554.09
2022-10-16T19:38:58.808Z,101564.63
2022-10-16T19:42:01.340Z,101572.59
2022-10-16T19:45:04.330Z,101578.78
2022-10-16T19:48:06.885Z,101585.75
2022-10-16T19:51:13.409Z,101589.31
2022-10-16T19:54:16.484Z,101578.94
2022-10-16T19:57:18.787Z,101580.81
2022-10-16T20:00:21.562Z,101586.94
2022-10-16T20:03:24.143Z,101597.38
2022-10-16T20:06:26.813Z,101601.78
2022-10-16T20:09:29.353Z,101601.69
2022-10-16T20:12:31.767Z,101600.03
2022-10-16T20:15:37.389Z,101607.09
2022-10-16T20:18:39.934Z,101619.34
2022-10-16T20:21:42.702Z,101627.19
2022-10-16T20:24:44.986Z,101638.59
2022-10-16T20:27:47.475Z,101639.53
2022-10-16T20:30:50.848Z,101643.84
2022-10-16T20:33:54.433Z,101642.09
2022-10-16T20:36:56.753Z,101649.97
2022-10-16T20:39:59.277Z,101652.56
2022-10-16T20:43:01.951Z,101656.81
2022-10-16T20:46:08.733Z,101663.91
2022-10-16T20:49:27.939Z,101664.06
2022-10-16T20:52:34.171Z,101675.47
2022-10-16T20:55:37.553Z,101670.34
2022-10-16T20:58:40.787Z,101672.16
2022-10-16T21:01:43.088Z,101670.50
2022-10-16T21:04:47.233Z,101673.16
2022-10-16T21:07:49.483Z,101669.75
2022-10-16T21:10:52.021Z,101681.09
2022-10-16T21:13:55.113Z,101684.72
2022-10-16T21:16:57.781Z,101692.56
2022-10-16T21:19:59.988Z,101690.91
2022-10-16T21:23:02.907Z,101693.53
2022-10-16T21:26:05.139Z,101691.84
2022-10-16T21:29:07.758Z,101689.22
2022-10-16T21:32:10.451Z,101692.81
2022-10-16T21:35:12.990Z,101687.66
2022-10-16T21:38:15.232Z,101691.16
2022-10-16T21:41:25.134Z,101686.94
2022-10-16T21:44:27.522Z,101689.56
2022-10-16T21:47:29.990Z,101695.63
2022-10-16T21:50:32.215Z,101695.69
2022-10-16T21:53:34.826Z,101698.19
2022-10-16T21:56:37.060Z,101699.09
2022-10-16T21:59:39.633Z,101702.66
2022-10-16T22:02:41.932Z,101702.72
2022-10-16T22:05:44.435Z,101705.38
2022-10-16T22:08:47.697Z,101708.88
2022-10-16T22:11:50.975Z,101708.94
2022-10-16T22:14:53.364Z,101710.75
2022-10-16T22:17:55.813Z,101710.78
2022-10-16T22:20:58.212Z,101720.38
2022-10-16T22:24:01.119Z,101721.31
2022-10-16T22:27:03.380Z,101724.78
2022-10-16T22:30:06.742Z,101731.72
2022-10-16T22:33:09.146Z,101724.75
2022-10-16T22:36:13.149Z,101723.06
2022-10-16T22:39:15.348Z,101736.06
2022-10-16T22:42:17.872Z,101725.75
2022-10-16T22:45:20.081Z,101725.75
2022-10-16T22:48:22.588Z,101732.66
2022-10-16T22:51:26.652Z,101731.81
2022-10-16T22:54:29.211Z,101747.47
2022-10-16T22:57:31.567Z,101742.25
2022-10-16T23:00:34.392Z,101750.94
2022-10-16T23:03:36.708Z,101744.88
2022-10-16T23:06:39.186Z,101744.94
2022-10-16T23:09:41.886Z,101758.84
2022-10-16T23:12:46.296Z,101764.91
2022-10-16T23:15:48.557Z,101762.34
2022-10-16T23:18:51.167Z,101760.66
2022-10-16T23:21:53.467Z,101762.44
2022-10-16T23:24:55.976Z,101773.69
2022-10-16T23:27:58.352Z,101771.12
2022-10-16T23:31:03.088Z,101774.59
2022-10-16T23:34:05.917Z,101776.37
2022-10-16T23:37:08.368Z,101779.84
2022-10-16T23:40:11.397Z,101781.63
2022-10-16T23:43:13.878Z,101788.56
2022-10-16T23:46:16.188Z,101779.94
2022-10-16T23:49:18.726Z,101783.41
2022-10-16T23:52:20.976Z,101785.16
2022-10-16T23:55:23.484Z,101786.09
2022-10-16T23:58:25.906Z,101790.38
